Terminal Aerodrome Forecast
Issued by NWS Cleveland, OH

Home | Current Version | Previous Version | Text Only | Print | Product List | Glossary On
Versions: 1 2 3 4 5 6 7 8 9 10 11 12 13 14 15 16 17 18 19 20 21 22
000
FTUS41 KCLE 300500
TAFMFD
TAF
KMFD 300521Z 3006/3106 21005KT P6SM BKN100
      TEMPO 3010/3012 5SM BR
     FM301400 24008KT P6SM BKN070
     FM301900 23010KT 6SM -SHRA OVC035
      TEMPO 3020/3023 3SM TSRA OVC025CB
     FM310000 23006KT P6SM BKN070=

USA.gov is the U.S. government's official web portal to all federal, state and local government web resources and services.